< < Back
Terminal Aerodrome Forecast


Current Version              Previous Versions:   1  2  3  4  5  6  7  8  9  

Terminal Aerodrome Forecast

941
FTUS42 KTAE 291120
TAFVLD
TAF
KVLD 291120Z 2912/3012 11003KT P6SM FEW250
     FM291500 10006KT P6SM FEW050=

Latest METAR

007
SAUS70 KWBC 301600 RRD
MTRVLD
METAR KVLD 301553Z 12005KT 10SM SCT037 BKN048 28/19 A3013 RMK AO2 SLP209
T02780189


USA.gov is the U.S. government's official web portal to all federal, state and local government web resources and services.